Time;durP1;ratioP1;P1;durP2;ratioP2;P2;SDS_P1;SDS_P2;PMS_P1;PMS_P2;Temp;Humidity;BMP_temperature;BMP_pressure;BME280_temperature;BME280_humidity;BME280_pressure;Samples;Min_cycle;Max_cycle;Signal;HPM_P1;HPM_P2
2023/03/25 00:00:32;;;;;;;2.33;1.67;;;13.50;1.00;;;;;;5052474;28;20464;-55
2023/03/25 00:02:57;;;;;;;3.80;1.70;;;13.60;1.00;;;;;;5057377;28;20455;-52
2023/03/25 00:05:23;;;;;;;3.93;1.90;;;13.50;1.00;;;;;;5057839;28;20187;-52
2023/03/25 00:07:51;;;;;;;4.77;1.60;;;13.50;1.00;;;;;;5058479;28;20777;-54
2023/03/25 00:10:17;;;;;;;2.70;2.07;;;13.40;1.00;;;;;;5059232;28;20261;-53
2023/03/25 00:12:43;;;;;;;7.27;1.90;;;13.30;1.00;;;;;;5058290;28;20486;-54
2023/03/25 00:15:11;;;;;;;2.00;1.63;;;13.30;1.00;;;;;;5059579;28;20187;-52
2023/03/25 00:17:37;;;;;;;2.10;1.80;;;13.30;1.00;;;;;;5058458;28;20547;-55
2023/03/25 00:20:10;;;;;;;2.30;1.90;;;13.30;1.00;;;;;;5063351;28;21032;-53
2023/03/25 00:22:39;;;;;;;6.87;2.00;;;13.20;1.00;;;;;;5064530;28;20806;-53
2023/03/25 00:25:07;;;;;;;2.77;1.87;;;13.20;1.00;;;;;;5060919;28;20909;-53
2023/03/25 00:27:33;;;;;;;3.53;2.13;;;13.10;1.00;;;;;;5056012;28;20445;-56
2023/03/25 00:29:59;;;;;;;3.03;2.00;;;13.10;1.00;;;;;;5055826;28;20547;-55
2023/03/25 00:32:28;;;;;;;2.80;2.27;;;13.10;1.00;;;;;;5063204;28;20530;-54
2023/03/25 00:34:54;;;;;;;3.80;2.30;;;13.10;1.00;;;;;;5067560;28;20196;-54
2023/03/25 00:37:20;;;;;;;3.20;1.87;;;13.10;1.00;;;;;;5070216;28;20526;-52
2023/03/25 00:39:46;;;;;;;3.80;1.70;;;13.00;1.00;;;;;;5067837;28;20457;-56
2023/03/25 00:42:16;;;;;;;3.97;1.60;;;13.00;1.00;;;;;;5059425;28;21055;-53
2023/03/25 00:44:42;;;;;;;19.00;3.00;;;13.10;1.00;;;;;;5069494;28;20495;-56
2023/03/25 00:47:07;;;;;;;1.83;1.60;;;13.10;1.00;;;;;;5072337;28;20442;-55
2023/03/25 00:49:33;;;;;;;3.93;2.00;;;13.00;1.00;;;;;;5071207;28;20187;-54
2023/03/25 00:51:58;;;;;;;3.47;1.90;;;13.10;1.00;;;;;;5068886;28;20225;-55
2023/03/25 00:54:24;;;;;;;5.37;2.00;;;13.00;1.00;;;;;;5066579;28;20320;-55
2023/03/25 00:56:51;;;;;;;3.43;1.70;;;13.00;1.00;;;;;;5066619;28;20195;-54
2023/03/25 00:59:17;;;;;;;2.10;1.30;;;13.10;1.00;;;;;;5071636;28;20215;-55
2023/03/25 01:01:44;;;;;;;3.27;1.97;;;13.00;1.00;;;;;;5067440;28;20526;-53
2023/03/25 01:04:11;;;;;;;3.50;1.90;;;13.00;1.00;;;;;;5064448;28;20746;-54
2023/03/25 01:06:50;;;;;;;3.60;1.83;;;13.10;1.00;;;;;;5066259;28;20445;-53
2023/03/25 01:09:18;;;;;;;3.27;1.87;;;13.10;1.00;;;;;;5064476;28;20445;-53
2023/03/25 01:11:45;;;;;;;5.87;1.83;;;13.10;1.00;;;;;;5063952;28;21139;-53
2023/03/25 01:14:14;;;;;;;3.67;2.07;;;13.10;1.00;;;;;;5060974;28;20453;-53
2023/03/25 01:16:40;;;;;;;5.90;1.90;;;13.00;1.00;;;;;;5072332;28;20503;-55
2023/03/25 01:19:05;;;;;;;4.37;1.93;;;13.10;1.00;;;;;;5068378;28;20446;-56
2023/03/25 01:21:35;;;;;;;3.43;2.13;;;13.10;1.00;;;;;;5063110;28;20461;-55
2023/03/25 01:24:02;;;;;;;3.63;1.83;;;13.00;1.00;;;;;;5064468;28;20188;-53
2023/03/25 01:26:29;;;;;;;6.13;1.90;;;12.90;1.00;;;;;;5066086;28;20791;-54
2023/03/25 01:28:54;;;;;;;3.10;2.00;;;12.90;1.00;;;;;;5058131;28;20978;-53
2023/03/25 01:31:21;;;;;;;3.47;1.60;;;12.90;1.00;;;;;;5058035;28;20453;-55
2023/03/25 01:33:48;;;;;;;2.60;1.80;;;12.80;1.00;;;;;;5062387;28;20600;-55
2023/03/25 01:36:14;;;;;;;3.70;2.00;;;12.80;1.00;;;;;;5064947;28;20446;-53
2023/03/25 01:38:41;;;;;;;4.73;2.00;;;12.80;1.00;;;;;;5068943;28;20449;-56
2023/03/25 01:41:08;;;;;;;4.17;2.37;;;12.90;1.00;;;;;;5072318;28;20473;-54
2023/03/25 01:43:34;;;;;;;6.70;2.30;;;12.80;1.00;;;;;;5073296;28;20441;-54
2023/03/25 01:46:00;;;;;;;4.20;2.87;;;12.90;1.00;;;;;;5073649;28;20536;-55
2023/03/25 01:48:36;;;;;;;3.87;2.57;;;13.00;1.00;;;;;;5067425;28;20454;-54
2023/03/25 01:51:15;;;;;;;4.27;2.87;;;12.90;1.00;;;;;;5059824;28;20648;-55
2023/03/25 01:53:42;;;;;;;3.60;2.30;;;12.90;1.00;;;;;;5073884;28;20476;-52
2023/03/25 01:56:10;;;;;;;3.60;2.33;;;12.90;1.00;;;;;;5067500;28;21005;-53
2023/03/25 01:58:36;;;;;;;4.00;2.27;;;12.90;1.00;;;;;;5058825;28;20537;-55
2023/03/25 02:01:03;;;;;;;3.63;2.40;;;12.60;1.00;;;;;;5064574;28;20802;-54
2023/03/25 02:03:30;;;;;;;5.33;2.20;;;13.00;1.00;;;;;;5070993;28;20469;-54
2023/03/25 02:06:13;;;;;;;3.40;2.30;;;13.00;1.00;;;;;;5072802;28;20565;-54
2023/03/25 02:08:40;;;;;;;3.77;1.73;;;13.00;1.00;;;;;;5067631;28;20448;-56
2023/03/25 02:11:07;;;;;;;2.00;1.70;;;13.10;1.00;;;;;;5068305;28;20496;-56
2023/03/25 02:13:35;;;;;;;4.00;1.90;;;13.10;1.00;;;;;;5063859;28;20430;-55
2023/03/25 02:16:17;;;;;;;2.50;1.87;;;13.10;1.00;;;;;;5063983;28;20460;-53
2023/03/25 02:19:20;;;;;;;7.33;1.83;;;13.10;1.00;;;;;;5063968;28;20499;-55
2023/03/25 02:22:01;;;;;;;3.43;1.80;;;13.20;1.00;;;;;;5059953;28;20533;-56
2023/03/25 02:24:41;;;;;;;2.70;1.70;;;13.10;1.00;;;;;;5064598;28;20524;-55
2023/03/25 02:27:40;;;;;;;5.40;2.07;;;13.00;1.00;;;;;;5065904;28;20442;-53
2023/03/25 02:30:40;;;;;;;3.53;2.43;;;13.00;1.00;;;;;;5068253;28;20450;-54
2023/03/25 02:33:15;;;;;;;3.63;2.33;;;13.10;1.00;;;;;;5065095;28;20579;-56
2023/03/25 02:36:30;;;;;;;3.97;2.10;;;13.10;1.00;;;;;;5067833;28;20450;-54
2023/03/25 02:39:17;;;;;;;3.80;2.20;;;13.10;1.00;;;;;;5060638;28;20451;-53
2023/03/25 02:41:56;;;;;;;3.10;1.60;;;13.00;1.00;;;;;;5065505;28;20437;-53
2023/03/25 02:44:29;;;;;;;3.17;2.00;;;13.10;1.00;;;;;;5062119;28;20480;-53
2023/03/25 02:47:00;;;;;;;3.60;1.50;;;13.10;1.00;;;;;;5067892;28;20453;-54
2023/03/25 02:49:35;;;;;;;3.30;1.70;;;13.30;1.00;;;;;;5054663;28;20454;-54
2023/03/25 02:52:04;;;;;;;4.57;1.70;;;13.20;1.00;;;;;;5062038;28;20934;-53
2023/03/25 02:54:32;;;;;;;2.00;1.80;;;13.20;1.00;;;;;;5060943;28;20743;-54
2023/03/25 02:56:59;;;;;;;2.80;1.80;;;13.10;1.00;;;;;;5065679;28;20470;-52
2023/03/25 02:59:28;;;;;;;7.80;1.80;;;13.10;1.00;;;;;;5064563;28;20442;-54
2023/03/25 03:01:57;;;;;;;5.00;1.80;;;13.20;1.00;;;;;;5058387;28;20504;-53
2023/03/25 03:04:24;;;;;;;4.00;1.60;;;13.20;1.00;;;;;;5053636;28;20474;-54
2023/03/25 03:06:52;;;;;;;2.57;1.63;;;13.20;1.00;;;;;;5063440;28;20851;-53
2023/03/25 03:09:32;;;;;;;3.10;1.63;;;13.20;1.00;;;;;;5059507;28;20573;-55
2023/03/25 03:12:16;;;;;;;2.43;2.10;;;13.20;1.00;;;;;;5070636;28;20441;-53
2023/03/25 03:15:00;;;;;;;5.40;1.67;;;13.20;1.00;;;;;;5064826;28;20833;-54
2023/03/25 03:17:34;;;;;;;3.07;1.27;;;13.30;1.00;;;;;;5057845;28;20466;-54
2023/03/25 03:20:24;;;;;;;4.03;1.43;;;13.40;1.00;;;;;;5061617;28;20473;-55
2023/03/25 03:23:09;;;;;;;2.50;1.40;;;13.40;1.00;;;;;;5058845;28;20523;-54
2023/03/25 03:25:48;;;;;;;3.30;1.80;;;13.30;1.00;;;;;;5055381;28;20445;-55
2023/03/25 03:28:46;;;;;;;7.33;1.47;;;13.40;1.00;;;;;;5068656;28;20795;-52
2023/03/25 03:31:38;;;;;;;1.60;1.50;;;13.40;1.00;;;;;;5055045;28;20461;-54
2023/03/25 03:34:13;;;;;;;3.30;1.70;;;13.40;1.00;;;;;;5057830;28;20485;-53
2023/03/25 03:36:44;;;;;;;3.43;1.57;;;13.40;1.00;;;;;;5061805;28;20904;-54
2023/03/25 03:39:24;;;;;;;4.00;1.20;;;13.30;1.00;;;;;;5057141;28;20578;-52
2023/03/25 03:42:00;;;;;;;5.00;1.50;;;13.40;1.00;;;;;;5071403;28;20519;-53
2023/03/25 03:44:30;;;;;;;2.10;1.53;;;13.30;1.00;;;;;;5066833;28;21038;-53
2023/03/25 03:47:09;;;;;;;5.90;1.40;;;13.30;1.00;;;;;;5068430;28;20845;-53
2023/03/25 03:49:38;;;;;;;1.67;1.27;;;13.30;1.00;;;;;;5062135;28;20811;-53
2023/03/25 03:52:16;;;;;;;3.33;1.10;;;13.20;1.00;;;;;;5057640;28;20553;-54
2023/03/25 03:55:28;;;;;;;3.60;1.20;;;13.20;1.00;;;;;;5054418;28;20559;-52
2023/03/25 03:58:01;;;;;;;3.03;1.43;;;13.20;1.00;;;;;;5019132;28;20569;-55
2023/03/25 04:00:41;;;;;;;2.57;1.23;;;13.30;1.00;;;;;;5048865;28;20456;-55
2023/03/25 04:03:14;;;;;;;1.83;1.40;;;13.20;1.00;;;;;;5060535;28;20445;-52
2023/03/25 04:05:51;;;;;;;1.30;1.13;;;13.20;1.00;;;;;;5057631;28;20492;-53
2023/03/25 04:08:36;;;;;;;1.43;1.20;;;13.20;1.00;;;;;;5055623;28;20507;-53
2023/03/25 04:11:08;;;;;;;2.33;1.27;;;13.20;1.00;;;;;;5054825;28;20450;-55
2023/03/25 04:13:42;;;;;;;1.90;1.00;;;13.10;1.00;;;;;;5057378;28;20583;-54
2023/03/25 04:16:08;;;;;;;3.33;1.27;;;13.00;1.00;;;;;;5059497;28;20503;-55
2023/03/25 04:18:34;;;;;;;3.60;1.37;;;13.20;1.00;;;;;;5056830;28;20443;-56
2023/03/25 04:21:00;;;;;;;2.73;1.20;;;13.20;1.00;;;;;;5060725;28;20457;-56
2023/03/25 04:23:28;;;;;;;2.77;1.10;;;13.10;1.00;;;;;;5070129;28;20195;-54
2023/03/25 04:25:54;;;;;;;1.90;1.07;;;13.10;1.00;;;;;;5071058;28;20540;-52
2023/03/25 04:28:22;;;;;;;2.57;1.10;;;13.10;1.00;;;;;;5071315;28;20445;-55
2023/03/25 04:30:54;;;;;;;2.07;1.20;;;12.90;1.00;;;;;;5057679;28;20452;-54
2023/03/25 04:33:24;;;;;;;1.97;0.80;;;12.90;1.00;;;;;;5056251;28;20495;-54
2023/03/25 04:35:50;;;;;;;3.97;0.97;;;12.90;1.00;;;;;;5062814;28;20499;-54
2023/03/25 04:38:17;;;;;;;2.00;0.90;;;13.10;1.00;;;;;;5068156;28;20468;-52
2023/03/25 04:40:46;;;;;;;2.00;0.80;;;13.20;1.00;;;;;;5065697;28;20446;-55
2023/03/25 04:43:13;;;;;;;2.60;0.90;;;13.10;1.00;;;;;;5064953;28;20445;-54
2023/03/25 04:45:41;;;;;;;1.80;1.07;;;13.30;1.00;;;;;;5066497;28;20441;-55
2023/03/25 04:48:18;;;;;;;2.60;1.17;;;13.30;1.00;;;;;;5073497;28;21083;-54
2023/03/25 04:50:44;;;;;;;1.90;1.00;;;13.30;1.00;;;;;;5062711;28;20445;-53
2023/03/25 04:53:10;;;;;;;2.07;1.27;;;13.30;1.00;;;;;;5066714;28;20468;-53
2023/03/25 04:55:35;;;;;;;2.03;1.30;;;13.30;1.00;;;;;;5066867;28;20249;-53
2023/03/25 04:58:01;;;;;;;3.93;1.63;;;13.30;1.00;;;;;;5069968;28;20238;-54
2023/03/25 05:00:27;;;;;;;2.10;0.83;;;13.30;1.00;;;;;;5070201;28;20714;-52
2023/03/25 05:02:54;;;;;;;2.93;1.00;;;13.20;1.00;;;;;;5075539;28;20211;-52
2023/03/25 05:05:24;;;;;;;2.33;1.10;;;13.20;1.00;;;;;;5059943;28;20188;-53
2023/03/25 05:07:52;;;;;;;1.80;1.10;;;13.20;1.00;;;;;;5061562;28;20511;-53
2023/03/25 05:10:19;;;;;;;1.80;0.90;;;13.10;1.00;;;;;;5066533;28;20484;-53
2023/03/25 05:12:46;;;;;;;1.80;1.00;;;13.00;1.00;;;;;;5069463;28;20828;-54
2023/03/25 05:15:12;;;;;;;1.80;0.63;;;12.90;1.00;;;;;;5076687;28;20557;-54
2023/03/25 05:17:39;;;;;;;1.87;0.60;;;12.90;1.00;;;;;;5068585;28;20463;-54
2023/03/25 05:20:09;;;;;;;1.30;0.70;;;12.90;1.00;;;;;;5061400;28;20570;-52
2023/03/25 05:22:36;;;;;;;1.60;0.80;;;12.80;1.00;;;;;;5069991;28;20438;-52
2023/03/25 05:25:09;;;;;;;1.53;0.40;;;12.80;1.00;;;;;;5065303;28;20765;-52
2023/03/25 05:27:35;;;;;;;0.83;0.40;;;12.90;1.00;;;;;;5071252;28;20851;-54
2023/03/25 05:30:02;;;;;;;1.27;0.53;;;12.80;1.00;;;;;;5063588;28;20460;-53
2023/03/25 05:32:32;;;;;;;0.83;0.60;;;12.80;1.00;;;;;;5067417;28;20946;-55
2023/03/25 05:35:01;;;;;;;0.93;0.50;;;12.90;1.00;;;;;;5059057;28;21020;-53
2023/03/25 05:37:27;;;;;;;0.40;0.40;;;12.90;1.00;;;;;;5066120;28;20478;-53
2023/03/25 05:39:53;;;;;;;1.30;0.40;;;13.00;1.00;;;;;;5066026;28;20437;-55
2023/03/25 05:42:21;;;;;;;2.43;0.60;;;13.00;1.00;;;;;;5064188;28;20442;-53
2023/03/25 05:44:52;;;;;;;1.47;0.47;;;13.10;1.00;;;;;;5068521;28;20179;-54
2023/03/25 05:47:22;;;;;;;0.70;0.40;;;13.10;1.00;;;;;;5074283;28;21941;-52
2023/03/25 05:49:49;;;;;;;1.70;0.40;;;13.10;1.00;;;;;;5058535;28;21078;-54
2023/03/25 05:52:16;;;;;;;3.20;0.50;;;13.10;1.00;;;;;;5055808;28;20507;-55
2023/03/25 05:54:44;;;;;;;0.53;0.53;;;13.00;1.00;;;;;;5053411;28;20800;-55
2023/03/25 05:57:10;;;;;;;2.93;0.90;;;12.80;1.00;;;;;;5057029;28;20583;-55
2023/03/25 05:59:39;;;;;;;2.50;0.50;;;12.80;1.00;;;;;;5055313;28;20793;-55
2023/03/25 06:02:08;;;;;;;0.43;0.30;;;12.80;1.00;;;;;;5055620;28;21193;-55
2023/03/25 06:04:40;;;;;;;0.40;0.40;;;12.70;1.00;;;;;;5064477;28;20442;-54
2023/03/25 06:07:18;;;;;;;0.50;0.30;;;12.70;1.00;;;;;;5063790;28;20460;-55
2023/03/25 06:09:45;;;;;;;0.93;0.30;;;12.60;1.00;;;;;;5053477;28;20454;-52
2023/03/25 06:12:18;;;;;;;0.73;0.50;;;12.70;1.00;;;;;;5055062;28;20763;-54
2023/03/25 06:14:45;;;;;;;1.60;0.53;;;12.80;1.00;;;;;;5056348;28;20421;-53
2023/03/25 06:17:12;;;;;;;1.07;0.50;;;12.90;1.00;;;;;;5058266;28;20553;-56
2023/03/25 06:19:38;;;;;;;0.53;0.40;;;12.80;1.00;;;;;;5059354;28;20438;-52
2023/03/25 06:22:08;;;;;;;1.67;0.40;;;12.70;1.00;;;;;;5058833;28;20559;-54
2023/03/25 06:24:36;;;;;;;1.10;0.47;;;12.60;1.00;;;;;;5062095;28;20205;-53
2023/03/25 06:27:02;;;;;;;1.37;0.60;;;12.50;1.00;;;;;;5061862;28;20446;-52
2023/03/25 06:29:27;;;;;;;1.60;0.50;;;12.30;1.00;;;;;;5067181;28;20445;-57
2023/03/25 06:31:53;;;;;;;0.40;0.40;;;12.20;1.00;;;;;;5063710;28;20438;-56
2023/03/25 06:34:19;;;;;;;0.67;0.57;;;12.20;1.00;;;;;;5064425;28;20282;-55
2023/03/25 06:36:48;;;;;;;1.60;0.60;;;12.10;1.00;;;;;;5064652;28;20557;-54
2023/03/25 06:39:15;;;;;;;1.33;0.40;;;12.20;1.00;;;;;;5062928;28;20449;-53
2023/03/25 06:41:41;;;;;;;4.23;0.80;;;12.30;1.00;;;;;;5061675;28;20445;-54
2023/03/25 06:44:07;;;;;;;3.63;0.73;;;12.40;1.00;;;;;;5082333;28;20442;-55
2023/03/25 06:46:32;;;;;;;2.40;0.80;;;12.40;1.00;;;;;;5062349;28;20662;-53
2023/03/25 06:48:58;;;;;;;1.48;0.60;;;12.50;1.00;;;;;;5062466;28;20521;-53
2023/03/25 06:51:24;;;;;;;0.93;0.60;;;12.40;1.00;;;;;;5065280;28;20180;-52
2023/03/25 06:53:49;;;;;;;1.33;0.60;;;12.60;1.00;;;;;;5064325;28;20698;-54
2023/03/25 06:56:15;;;;;;;1.37;0.70;;;12.80;1.00;;;;;;5067086;28;20665;-53
2023/03/25 06:58:40;;;;;;;1.00;0.40;;;12.90;1.00;;;;;;5079092;28;20179;-54
2023/03/25 07:01:07;;;;;;;1.70;0.60;;;13.00;1.00;;;;;;5066999;28;20271;-54
2023/03/25 07:03:35;;;;;;;1.40;0.57;;;13.10;1.00;;;;;;5068081;28;20196;-54
2023/03/25 07:06:00;;;;;;;0.70;0.40;;;13.10;1.00;;;;;;5061872;28;20503;-54
2023/03/25 07:08:26;;;;;;;2.80;0.70;;;13.20;1.00;;;;;;5065496;28;20453;-56
2023/03/25 07:10:52;;;;;;;2.13;0.90;;;13.10;1.00;;;;;;5067729;28;20192;-53
2023/03/25 07:13:17;;;;;;;1.40;0.70;;;13.10;1.00;;;;;;5066719;28;20283;-53
2023/03/25 07:15:43;;;;;;;1.60;0.77;;;13.20;1.00;;;;;;5065471;28;20179;-53
2023/03/25 07:18:08;;;;;;;1.93;0.60;;;13.10;1.00;;;;;;5068263;28;20731;-54
2023/03/25 07:20:34;;;;;;;1.70;0.53;;;13.00;1.00;;;;;;5071867;28;20179;-54
2023/03/25 07:23:00;;;;;;;1.73;0.70;;;12.90;1.00;;;;;;5065523;28;20204;-54
2023/03/25 07:25:25;;;;;;;2.30;0.70;;;12.70;1.00;;;;;;5073026;28;20183;-55
2023/03/25 07:27:51;;;;;;;3.40;0.90;;;12.90;1.00;;;;;;5070380;28;20637;-52
2023/03/25 07:30:16;;;;;;;1.00;0.57;;;13.10;1.00;;;;;;5068907;28;20198;-53
2023/03/25 07:32:45;;;;;;;2.20;0.70;;;13.10;1.00;;;;;;5069932;28;20516;-53
2023/03/25 07:35:11;;;;;;;4.93;0.80;;;13.40;1.00;;;;;;5070396;28;20542;-54
2023/03/25 07:37:37;;;;;;;1.00;0.70;;;13.70;1.00;;;;;;5064463;28;20557;-54
2023/03/25 07:40:03;;;;;;;2.10;0.70;;;13.90;1.00;;;;;;5071053;28;20526;-52
2023/03/25 07:42:28;;;;;;;1.00;0.47;;;13.80;99.90;;;;;;5084011;28;20180;-54
2023/03/25 07:44:54;;;;;;;1.73;0.83;;;13.80;99.90;;;;;;5070380;28;20454;-54
2023/03/25 07:47:19;;;;;;;1.63;0.67;;;13.60;99.90;;;;;;5080078;28;20210;-55
2023/03/25 07:49:46;;;;;;;1.70;0.70;;;13.40;99.90;;;;;;5074770;28;20312;-54
2023/03/25 07:52:12;;;;;;;4.77;0.90;;;13.20;99.90;;;;;;5062031;28;20191;-55
2023/03/25 07:54:37;;;;;;;2.80;0.90;;;13.10;99.90;;;;;;5073271;28;20476;-56
2023/03/25 07:57:03;;;;;;;1.33;0.80;;;13.10;99.90;;;;;;5075131;28;20700;-57
2023/03/25 07:59:29;;;;;;;1.60;0.90;;;12.90;1.00;;;;;;5066250;28;20208;-55
2023/03/25 08:01:54;;;;;;;1.27;0.80;;;13.00;1.00;;;;;;5061797;28;20206;-53
2023/03/25 08:04:20;;;;;;;1.93;0.80;;;13.00;1.00;;;;;;5068001;28;20199;-53
2023/03/25 08:06:46;;;;;;;2.37;0.90;;;13.10;1.00;;;;;;5063218;28;20243;-54
2023/03/25 08:09:12;;;;;;;2.07;0.50;;;13.10;1.00;;;;;;5068508;28;20196;-55
2023/03/25 08:11:37;;;;;;;2.07;0.60;;;13.10;1.00;;;;;;5071515;28;20456;-55
2023/03/25 08:14:03;;;;;;;1.60;1.23;;;13.00;1.00;;;;;;5073796;28;20203;-55
2023/03/25 08:16:29;;;;;;;2.27;1.40;;;12.80;1.00;;;;;;5075886;28;20726;-55
2023/03/25 08:18:54;;;;;;;1.27;0.63;;;13.00;1.00;;;;;;5081632;28;20289;-54
2023/03/25 08:21:26;;;;;;;4.53;0.80;;;13.10;1.00;;;;;;5078474;28;20191;-54
2023/03/25 08:24:03;;;;;;;1.23;0.63;;;12.90;1.00;;;;;;5070708;28;20194;-55
2023/03/25 08:26:32;;;;;;;1.10;0.60;;;12.50;1.00;;;;;;5082308;28;20453;-55
2023/03/25 08:28:58;;;;;;;1.73;0.60;;;12.50;1.00;;;;;;5072166;28;20904;-53
2023/03/25 08:31:29;;;;;;;2.50;0.70;;;12.40;1.00;;;;;;5078253;28;21221;-55
2023/03/25 08:34:02;;;;;;;1.40;0.70;;;12.50;1.00;;;;;;5081117;28;20449;-53
2023/03/25 08:36:28;;;;;;;2.20;0.70;;;12.60;1.00;;;;;;5072409;28;20784;-54
2023/03/25 08:38:54;;;;;;;0.90;0.60;;;12.60;1.00;;;;;;5074233;28;20442;-55
2023/03/25 08:41:19;;;;;;;2.43;1.10;;;12.70;1.00;;;;;;5076737;28;20184;-56
2023/03/25 08:43:45;;;;;;;1.20;0.70;;;12.80;1.00;;;;;;5078227;28;20440;-56
2023/03/25 08:46:11;;;;;;;2.00;0.83;;;12.60;1.00;;;;;;5061963;28;20184;-54
2023/03/25 08:48:37;;;;;;;3.80;0.70;;;12.50;1.00;;;;;;5076706;28;20198;-53
2023/03/25 08:51:04;;;;;;;2.17;0.70;;;12.40;1.00;;;;;;5065472;28;20450;-53
2023/03/25 08:53:30;;;;;;;1.00;0.70;;;12.20;1.00;;;;;;5071767;28;20227;-55
2023/03/25 08:55:57;;;;;;;0.87;0.50;;;11.90;1.00;;;;;;5070854;28;20445;-53
2023/03/25 08:58:24;;;;;;;2.53;0.80;;;11.80;1.00;;;;;;5072302;28;20567;-58
2023/03/25 09:00:53;;;;;;;1.00;0.80;;;11.80;1.00;;;;;;5067765;28;20442;-54
2023/03/25 09:03:20;;;;;;;1.27;0.50;;;11.80;1.00;;;;;;5078639;28;20474;-55
2023/03/25 09:05:46;;;;;;;0.90;0.90;;;11.70;1.00;;;;;;5075627;28;20449;-52
2023/03/25 09:08:12;;;;;;;0.60;0.60;;;11.60;1.00;;;;;;5070401;28;20824;-56
2023/03/25 09:10:38;;;;;;;1.13;0.80;;;11.60;1.00;;;;;;5082906;28;20437;-55
2023/03/25 09:13:03;;;;;;;1.33;0.70;;;11.70;1.00;;;;;;5078056;28;20449;-52
2023/03/25 09:15:29;;;;;;;2.53;0.70;;;11.40;1.00;;;;;;5076622;28;20195;-54
2023/03/25 09:17:55;;;;;;;1.07;0.90;;;11.30;1.00;;;;;;5074526;28;20721;-53
2023/03/25 09:20:21;;;;;;;1.60;0.73;;;11.30;1.00;;;;;;5059980;28;20442;-56
2023/03/25 09:22:47;;;;;;;0.70;0.63;;;11.20;1.00;;;;;;5065350;28;20445;-55
2023/03/25 09:25:12;;;;;;;0.83;0.50;;;11.30;1.00;;;;;;5067567;28;21016;-55
2023/03/25 09:27:38;;;;;;;0.63;0.60;;;11.30;1.00;;;;;;5071057;28;20187;-54
2023/03/25 09:30:05;;;;;;;0.60;0.60;;;11.10;1.00;;;;;;5075692;28;20525;-53
2023/03/25 09:32:33;;;;;;;1.43;0.87;;;11.00;1.00;;;;;;5065969;28;20756;-56
2023/03/25 09:34:58;;;;;;;0.70;0.63;;;11.00;1.00;;;;;;5068171;28;20733;-55
2023/03/25 09:37:25;;;;;;;1.57;0.73;;;11.00;1.00;;;;;;5068438;28;20476;-55
2023/03/25 09:39:50;;;;;;;1.07;0.60;;;11.10;1.00;;;;;;5073501;28;20201;-54
2023/03/25 09:42:53;;;;;;;0.90;0.60;;;11.20;1.00;;;;;;5069688;28;20446;-55
2023/03/25 09:45:28;;;;;;;0.90;0.80;;;11.40;1.00;;;;;;5071217;28;20188;-54
2023/03/25 09:48:01;;;;;;;1.23;0.70;;;11.60;1.00;;;;;;5086057;28;20436;-55
2023/03/25 09:50:30;;;;;;;3.90;1.00;;;11.80;1.00;;;;;;5073038;28;20537;-53
2023/03/25 09:53:00;;;;;;;0.80;0.80;;;12.00;1.00;;;;;;5070125;28;20929;-54
2023/03/25 09:55:31;;;;;;;1.40;0.87;;;12.30;1.00;;;;;;5064766;28;20541;-55
2023/03/25 09:58:35;;;;;;;1.00;0.90;;;12.00;1.00;;;;;;5071733;28;20584;-54
2023/03/25 10:01:20;;;;;;;0.50;0.50;;;12.00;1.00;;;;;;5054877;28;21025;-55
2023/03/25 10:04:27;;;;;;;2.03;1.17;;;12.30;1.00;;;;;;5073787;28;20764;-52
2023/03/25 10:07:05;;;;;;;2.50;1.07;;;12.50;1.00;;;;;;5070625;28;20450;-55
2023/03/25 10:09:53;;;;;;;2.07;1.20;;;12.80;1.00;;;;;;5073681;28;20450;-53
2023/03/25 10:12:40;;;;;;;1.80;1.13;;;12.90;1.00;;;;;;5065587;28;20462;-55
2023/03/25 10:15:31;;;;;;;1.07;0.70;;;13.10;1.00;;;;;;5083266;28;20449;-55
2023/03/25 10:18:34;;;;;;;2.23;0.90;;;13.40;1.00;;;;;;5077267;28;20468;-53
2023/03/25 10:21:09;;;;;;;1.60;0.73;;;13.80;1.00;;;;;;5079261;28;20449;-53
2023/03/25 10:23:46;;;;;;;3.00;0.97;;;14.20;1.00;;;;;;5077210;28;20505;-54
2023/03/25 10:26:21;;;;;;;1.50;1.00;;;14.40;1.00;;;;;;5084482;28;20503;-54
2023/03/25 10:28:53;;;;;;;2.77;1.50;;;14.90;1.00;;;;;;5075571;28;20447;-54
2023/03/25 10:31:24;;;;;;;1.63;1.20;;;15.10;1.00;;;;;;5072048;28;20962;-53
2023/03/25 10:34:00;;;;;;;1.60;1.00;;;15.30;1.00;;;;;;5070257;28;20795;-56
2023/03/25 10:36:48;;;;;;;0.90;0.80;;;15.30;1.00;;;;;;5066440;28;20927;-55
2023/03/25 10:39:19;;;;;;;1.10;0.83;;;14.90;1.00;;;;;;5060235;28;20877;-52
2023/03/25 10:42:24;;;;;;;0.70;0.60;;;14.90;1.00;;;;;;5072104;28;20488;-53
2023/03/25 10:44:51;;;;;;;1.13;0.83;;;15.20;1.00;;;;;;5073753;28;20441;-51
2023/03/25 10:47:29;;;;;;;0.97;0.87;;;15.30;1.00;;;;;;5064198;28;20450;-53
2023/03/25 10:49:58;;;;;;;2.00;1.00;;;15.50;1.00;;;;;;5066111;28;20469;-56
2023/03/25 10:52:24;;;;;;;0.90;0.70;;;15.50;1.00;;;;;;5061021;28;20450;-54
2023/03/25 10:54:54;;;;;;;2.00;0.87;;;15.20;1.00;;;;;;5063982;28;21090;-54
2023/03/25 10:57:28;;;;;;;1.77;0.90;;;15.30;1.00;;;;;;5072005;28;20492;-53
2023/03/25 11:00:17;;;;;;;1.53;0.87;;;15.40;1.00;;;;;;5076676;28;20449;-55
2023/03/25 11:02:42;;;;;;;1.70;0.80;;;15.10;99.90;;;;;;5081996;28;20473;-55
2023/03/25 11:05:08;;;;;;;1.17;0.50;;;14.90;99.90;;;;;;5064913;28;20538;-52
2023/03/25 11:07:37;;;;;;;1.30;0.63;;;14.80;99.90;;;;;;5074808;28;20215;-53
2023/03/25 11:10:31;;;;;;;1.07;0.63;;;14.30;99.90;;;;;;5069035;28;20188;-54
2023/03/25 11:13:02;;;;;;;0.50;0.47;;;13.70;1.00;;;;;;5064895;28;20451;-52
2023/03/25 11:15:36;;;;;;;1.73;0.60;;;13.50;1.00;;;;;;5067947;28;20457;-53
2023/03/25 11:18:18;;;;;;;0.87;0.70;;;13.50;1.00;;;;;;5069208;28;20469;-55
2023/03/25 11:20:54;;;;;;;0.90;0.60;;;13.70;1.00;;;;;;5077602;28;20438;-55
2023/03/25 11:23:33;;;;;;;1.00;0.90;;;14.00;1.00;;;;;;5089311;28;20485;-54
2023/03/25 11:26:32;;;;;;;2.33;1.00;;;14.30;1.00;;;;;;5066982;28;20438;-53
2023/03/25 11:29:18;;;;;;;1.57;1.03;;;14.60;1.00;;;;;;5073752;28;20499;-53
2023/03/25 11:31:55;;;;;;;2.97;1.60;;;14.50;1.00;;;;;;5076104;28;20442;-54
2023/03/25 11:34:22;;;;;;;0.80;0.80;;;14.20;1.00;;;;;;5080933;28;20433;-55
2023/03/25 11:37:08;;;;;;;1.20;0.80;;;13.20;1.00;;;;;;5088986;28;20559;-53
2023/03/25 11:39:38;;;;;;;1.57;1.20;;;13.10;1.00;;;;;;5087555;28;20463;-53
2023/03/25 11:42:31;;;;;;;1.63;0.80;;;12.40;1.00;;;;;;5079676;28;20551;-54
2023/03/25 11:44:58;;;;;;;0.57;0.50;;;12.20;1.00;;;;;;5067417;28;20846;-53
2023/03/25 11:47:36;;;;;;;1.03;0.60;;;12.10;1.00;;;;;;5068865;28;20537;-55
2023/03/25 11:50:04;;;;;;;2.40;0.60;;;11.90;1.00;;;;;;5072661;28;20433;-54
2023/03/25 11:52:43;;;;;;;0.90;0.50;;;12.10;1.00;;;;;;5076960;28;20434;-53
2023/03/25 11:55:27;;;;;;;0.60;0.50;;;12.40;1.00;;;;;;5067454;28;20477;-56
2023/03/25 11:57:58;;;;;;;1.13;0.50;;;12.60;1.00;;;;;;5067726;28;21039;-55
2023/03/25 12:00:24;;;;;;;1.37;0.67;;;12.70;1.00;;;;;;5072926;28;20434;-54
2023/03/25 12:03:03;;;;;;;1.37;0.60;;;12.80;1.00;;;;;;5072554;28;20971;-52
2023/03/25 12:05:29;;;;;;;1.17;0.50;;;13.00;1.00;;;;;;5076992;28;20186;-54
2023/03/25 12:08:10;;;;;;;0.50;0.50;;;13.30;1.00;;;;;;5092684;28;20755;-54
2023/03/25 12:10:53;;;;;;;1.47;0.70;;;13.60;1.00;;;;;;5092941;28;20445;-54
2023/03/25 12:14:00;;;;;;;1.43;0.60;;;14.00;1.00;;;;;;5085014;28;20472;-56
2023/03/25 12:16:55;;;;;;;1.40;0.50;;;14.00;1.00;;;;;;5091817;28;20432;-55
2023/03/25 12:19:42;;;;;;;0.80;0.60;;;13.90;1.00;;;;;;5084649;28;20843;-54
2023/03/25 12:22:35;;;;;;;0.87;0.57;;;13.80;1.00;;;;;;5091014;28;20447;-56
2023/03/25 12:25:01;;;;;;;0.97;0.87;;;14.30;1.00;;;;;;5074643;28;20433;-54
2023/03/25 12:28:01;;;;;;;0.57;0.57;;;14.80;1.00;;;;;;5072325;28;20444;-54
2023/03/25 12:30:57;;;;;;;0.73;0.40;;;15.00;99.90;;;;;;5085947;28;20440;-55
2023/03/25 12:33:41;;;;;;;1.00;0.30;;;14.80;99.90;;;;;;5073095;28;20433;-55
2023/03/25 12:36:33;;;;;;;1.13;0.60;;;14.70;99.90;;;;;;5070543;28;20492;-53
2023/03/25 12:39:28;;;;;;;1.33;0.70;;;15.10;99.90;;;;;;5070354;28;20446;-54
2023/03/25 12:42:15;;;;;;;5.40;0.70;;;15.30;99.90;;;;;;5071745;28;20544;-54
2023/03/25 12:44:49;;;;;;;0.73;0.40;;;15.50;99.90;;;;;;5081279;28;20971;-54
2023/03/25 12:47:33;;;;;;;1.27;0.57;;;15.50;99.90;;;;;;5082398;28;20429;-53
2023/03/25 12:50:21;;;;;;;2.50;0.80;;;15.20;99.90;;;;;;5085749;28;20437;-53
2023/03/25 12:52:55;;;;;;;1.33;0.60;;;14.90;99.90;;;;;;5091584;28;20482;-55
2023/03/25 12:55:46;;;;;;;0.50;0.43;;;14.60;99.90;;;;;;5082870;28;20516;-53
2023/03/25 12:58:48;;;;;;;1.27;0.50;;;13.90;99.90;;;;;;5070434;28;20838;-55
2023/03/25 13:01:35;;;;;;;1.33;0.40;;;13.40;1.00;;;;;;5071523;28;20434;-55
2023/03/25 13:04:08;;;;;;;0.87;0.57;;;13.80;1.00;;;;;;5084596;28;20484;-54
2023/03/25 13:07:01;;;;;;;1.33;0.50;;;14.20;99.90;;;;;;5074573;28;20434;-53
2023/03/25 13:09:30;;;;;;;1.03;0.60;;;14.50;99.90;;;;;;5069622;28;20517;-55
2023/03/25 13:12:04;;;;;;;1.17;0.70;;;14.60;99.90;;;;;;5069568;28;20431;-54
2023/03/25 13:14:37;;;;;;;1.30;0.50;;;14.30;99.90;;;;;;5061961;28;20947;-54
2023/03/25 13:17:12;;;;;;;1.60;0.67;;;14.30;99.90;;;;;;5075371;28;20461;-53
2023/03/25 13:19:42;;;;;;;1.73;0.73;;;14.30;99.90;;;;;;5064018;28;21168;-54
2023/03/25 13:22:45;;;;;;;0.77;0.50;;;14.60;99.90;;;;;;5064243;28;20533;-55